sensor_id;sensor_type;location;lat;lon;timestamp;temperature;humidity
17092;DHT22;8661;45.700;4.880;2022-11-23T00:00:17;4.50;99.90
17092;DHT22;8661;45.700;4.880;2022-11-23T00:02:44;4.50;99.90
17092;DHT22;8661;45.700;4.880;2022-11-23T00:05:11;4.50;99.90
17092;DHT22;8661;45.700;4.880;2022-11-23T00:07:40;4.60;99.90
17092;DHT22;8661;45.700;4.880;2022-11-23T00:10:08;4.60;99.90
17092;DHT22;8661;45.700;4.880;2022-11-23T00:12:35;4.60;99.90
17092;DHT22;8661;45.700;4.880;2022-11-23T00:15:03;4.60;99.90
17092;DHT22;8661;45.700;4.880;2022-11-23T00:17:32;4.50;99.90
17092;DHT22;8661;45.700;4.880;2022-11-23T00:19:59;4.60;99.90
17092;DHT22;8661;45.700;4.880;2022-11-23T00:22:26;4.60;99.90
17092;DHT22;8661;45.700;4.880;2022-11-23T00:24:53;4.60;99.90
17092;DHT22;8661;45.700;4.880;2022-11-23T00:27:20;4.60;99.90
17092;DHT22;8661;45.700;4.880;2022-11-23T00:29:47;4.60;99.90
17092;DHT22;8661;45.700;4.880;2022-11-23T00:32:14;4.60;99.90
17092;DHT22;8661;45.700;4.880;2022-11-23T00:34:43;4.60;99.90
17092;DHT22;8661;45.700;4.880;2022-11-23T00:37:10;4.60;99.90
17092;DHT22;8661;45.700;4.880;2022-11-23T00:39:37;4.60;99.90
17092;DHT22;8661;45.700;4.880;2022-11-23T00:42:04;4.70;99.90
17092;DHT22;8661;45.700;4.880;2022-11-23T00:44:31;4.70;99.90
17092;DHT22;8661;45.700;4.880;2022-11-23T00:46:58;4.70;99.90
17092;DHT22;8661;45.700;4.880;2022-11-23T00:49:25;4.70;99.90
17092;DHT22;8661;45.700;4.880;2022-11-23T00:51:54;4.70;99.90
17092;DHT22;8661;45.700;4.880;2022-11-23T00:54:21;4.80;99.90
17092;DHT22;8661;45.700;4.880;2022-11-23T00:56:48;4.80;99.90
17092;DHT22;8661;45.700;4.880;2022-11-23T00:59:15;4.90;99.90
17092;DHT22;8661;45.700;4.880;2022-11-23T01:01:42;4.90;99.90
17092;DHT22;8661;45.700;4.880;2022-11-23T01:04:09;4.80;99.90
17092;DHT22;8661;45.700;4.880;2022-11-23T01:06:38;4.80;99.90
17092;DHT22;8661;45.700;4.880;2022-11-23T01:09:10;4.80;99.90
17092;DHT22;8661;45.700;4.880;2022-11-23T01:11:38;4.80;99.90
17092;DHT22;8661;45.700;4.880;2022-11-23T01:14:05;4.80;99.90
17092;DHT22;8661;45.700;4.880;2022-11-23T01:16:34;4.80;99.90
17092;DHT22;8661;45.700;4.880;2022-11-23T01:19:03;4.80;99.90
17092;DHT22;8661;45.700;4.880;2022-11-23T01:21:31;4.80;99.90
17092;DHT22;8661;45.700;4.880;2022-11-23T01:23:59;4.80;99.90
17092;DHT22;8661;45.700;4.880;2022-11-23T01:26:27;4.80;99.90
17092;DHT22;8661;45.700;4.880;2022-11-23T01:28:54;4.80;99.90
17092;DHT22;8661;45.700;4.880;2022-11-23T01:31:23;4.80;99.90
17092;DHT22;8661;45.700;4.880;2022-11-23T01:33:52;4.80;99.90
17092;DHT22;8661;45.700;4.880;2022-11-23T01:36:21;4.80;99.90
17092;DHT22;8661;45.700;4.880;2022-11-23T01:38:49;4.80;99.90
17092;DHT22;8661;45.700;4.880;2022-11-23T01:41:18;4.80;99.90
17092;DHT22;8661;45.700;4.880;2022-11-23T01:43:47;4.90;99.90
17092;DHT22;8661;45.700;4.880;2022-11-23T01:46:14;4.90;99.90
17092;DHT22;8661;45.700;4.880;2022-11-23T01:48:44;4.90;99.90
17092;DHT22;8661;45.700;4.880;2022-11-23T01:51:14;4.90;99.90
17092;DHT22;8661;45.700;4.880;2022-11-23T01:53:42;5.00;99.90
17092;DHT22;8661;45.700;4.880;2022-11-23T01:56:14;5.00;99.90
17092;DHT22;8661;45.700;4.880;2022-11-23T01:58:44;5.00;99.90
17092;DHT22;8661;45.700;4.880;2022-11-23T02:01:13;5.00;99.90
17092;DHT22;8661;45.700;4.880;2022-11-23T02:03:41;5.00;99.90
17092;DHT22;8661;45.700;4.880;2022-11-23T02:06:13;4.90;99.90
17092;DHT22;8661;45.700;4.880;2022-11-23T02:08:41;5.00;99.90
17092;DHT22;8661;45.700;4.880;2022-11-23T02:11:09;5.00;99.90
17092;DHT22;8661;45.700;4.880;2022-11-23T02:13:37;5.00;99.90
17092;DHT22;8661;45.700;4.880;2022-11-23T02:16:05;5.00;99.90
17092;DHT22;8661;45.700;4.880;2022-11-23T02:18:35;5.00;99.90
17092;DHT22;8661;45.700;4.880;2022-11-23T02:21:03;5.00;99.90
17092;DHT22;8661;45.700;4.880;2022-11-23T02:23:33;4.90;99.90
17092;DHT22;8661;45.700;4.880;2022-11-23T02:26:05;5.00;99.90
17092;DHT22;8661;45.700;4.880;2022-11-23T02:28:37;5.00;99.90
17092;DHT22;8661;45.700;4.880;2022-11-23T02:31:05;5.00;99.90
17092;DHT22;8661;45.700;4.880;2022-11-23T02:33:32;4.90;99.90
17092;DHT22;8661;45.700;4.880;2022-11-23T02:36:00;4.90;99.90
17092;DHT22;8661;45.700;4.880;2022-11-23T02:38:30;4.90;99.90
17092;DHT22;8661;45.700;4.880;2022-11-23T02:40:58;4.90;99.90
17092;DHT22;8661;45.700;4.880;2022-11-23T02:43:27;4.90;99.90
17092;DHT22;8661;45.700;4.880;2022-11-23T02:45:55;4.90;99.90
17092;DHT22;8661;45.700;4.880;2022-11-23T02:48:23;4.90;99.90
17092;DHT22;8661;45.700;4.880;2022-11-23T02:50:51;4.90;99.90
17092;DHT22;8661;45.700;4.880;2022-11-23T02:53:18;4.90;99.90
17092;DHT22;8661;45.700;4.880;2022-11-23T02:55:45;4.80;99.90
17092;DHT22;8661;45.700;4.880;2022-11-23T02:58:12;4.80;99.90
17092;DHT22;8661;45.700;4.880;2022-11-23T03:00:40;4.80;99.90
17092;DHT22;8661;45.700;4.880;2022-11-23T03:03:08;4.80;99.90
17092;DHT22;8661;45.700;4.880;2022-11-23T03:05:35;4.90;99.90
17092;DHT22;8661;45.700;4.880;2022-11-23T03:08:02;4.80;99.90
17092;DHT22;8661;45.700;4.880;2022-11-23T03:10:29;4.80;99.90
17092;DHT22;8661;45.700;4.880;2022-11-23T03:12:56;4.70;99.90
17092;DHT22;8661;45.700;4.880;2022-11-23T03:15:23;4.70;99.90
17092;DHT22;8661;45.700;4.880;2022-11-23T03:17:52;4.70;99.90
17092;DHT22;8661;45.700;4.880;2022-11-23T03:20:19;4.70;99.90
17092;DHT22;8661;45.700;4.880;2022-11-23T03:22:46;4.70;99.90
17092;DHT22;8661;45.700;4.880;2022-11-23T03:25:13;4.70;99.90
17092;DHT22;8661;45.700;4.880;2022-11-23T03:27:40;4.70;99.90
17092;DHT22;8661;45.700;4.880;2022-11-23T03:30:08;4.70;99.90
17092;DHT22;8661;45.700;4.880;2022-11-23T03:32:35;4.70;99.90
17092;DHT22;8661;45.700;4.880;2022-11-23T03:35:05;4.70;99.90
17092;DHT22;8661;45.700;4.880;2022-11-23T03:37:32;4.60;99.90
17092;DHT22;8661;45.700;4.880;2022-11-23T03:39:59;4.60;99.90
17092;DHT22;8661;45.700;4.880;2022-11-23T03:42:26;4.60;99.90
17092;DHT22;8661;45.700;4.880;2022-11-23T03:44:53;4.60;99.90
17092;DHT22;8661;45.700;4.880;2022-11-23T03:47:21;4.50;99.90
17092;DHT22;8661;45.700;4.880;2022-11-23T03:49:48;4.60;99.90
17092;DHT22;8661;45.700;4.880;2022-11-23T03:52:16;4.50;99.90
17092;DHT22;8661;45.700;4.880;2022-11-23T03:54:46;4.50;99.90
17092;DHT22;8661;45.700;4.880;2022-11-23T03:57:13;4.50;99.90
17092;DHT22;8661;45.700;4.880;2022-11-23T03:59:40;4.60;99.90
17092;DHT22;8661;45.700;4.880;2022-11-23T04:02:07;4.60;99.90
17092;DHT22;8661;45.700;4.880;2022-11-23T04:04:34;4.60;99.90
17092;DHT22;8661;45.700;4.880;2022-11-23T04:07:01;4.60;99.90
17092;DHT22;8661;45.700;4.880;2022-11-23T04:09:30;4.60;99.90
17092;DHT22;8661;45.700;4.880;2022-11-23T04:11:57;4.60;99.90
17092;DHT22;8661;45.700;4.880;2022-11-23T04:14:24;4.60;99.90
17092;DHT22;8661;45.700;4.880;2022-11-23T04:16:51;4.50;99.90
17092;DHT22;8661;45.700;4.880;2022-11-23T04:19:18;4.50;99.90
17092;DHT22;8661;45.700;4.880;2022-11-23T04:21:45;4.50;99.90
17092;DHT22;8661;45.700;4.880;2022-11-23T04:24:12;4.50;99.90
17092;DHT22;8661;45.700;4.880;2022-11-23T04:26:40;4.50;99.90
17092;DHT22;8661;45.700;4.880;2022-11-23T04:29:07;4.50;99.90
17092;DHT22;8661;45.700;4.880;2022-11-23T04:31:34;4.50;99.90
17092;DHT22;8661;45.700;4.880;2022-11-23T04:34:02;4.50;99.90
17092;DHT22;8661;45.700;4.880;2022-11-23T04:36:29;4.50;99.90
17092;DHT22;8661;45.700;4.880;2022-11-23T04:38:56;4.60;99.90
17092;DHT22;8661;45.700;4.880;2022-11-23T04:41:23;4.70;99.90
17092;DHT22;8661;45.700;4.880;2022-11-23T04:43:52;4.70;99.90
17092;DHT22;8661;45.700;4.880;2022-11-23T04:46:19;4.80;99.90
17092;DHT22;8661;45.700;4.880;2022-11-23T04:48:46;4.80;99.90
17092;DHT22;8661;45.700;4.880;2022-11-23T04:51:13;4.80;99.90
17092;DHT22;8661;45.700;4.880;2022-11-23T04:53:41;4.90;99.90
17092;DHT22;8661;45.700;4.880;2022-11-23T04:56:08;4.90;99.90
17092;DHT22;8661;45.700;4.880;2022-11-23T04:58:36;5.00;99.90
17092;DHT22;8661;45.700;4.880;2022-11-23T05:01:08;5.10;99.90
17092;DHT22;8661;45.700;4.880;2022-11-23T05:03:35;5.10;99.90
17092;DHT22;8661;45.700;4.880;2022-11-23T05:06:03;5.20;99.90
17092;DHT22;8661;45.700;4.880;2022-11-23T05:08:32;5.20;99.90
17092;DHT22;8661;45.700;4.880;2022-11-23T05:10:59;5.20;99.90
17092;DHT22;8661;45.700;4.880;2022-11-23T05:13:26;5.20;99.90
17092;DHT22;8661;45.700;4.880;2022-11-23T05:15:53;5.30;99.90
17092;DHT22;8661;45.700;4.880;2022-11-23T05:18:21;5.20;99.90
17092;DHT22;8661;45.700;4.880;2022-11-23T05:20:48;5.20;99.90
17092;DHT22;8661;45.700;4.880;2022-11-23T05:23:15;5.20;99.90
17092;DHT22;8661;45.700;4.880;2022-11-23T05:25:42;5.20;99.90
17092;DHT22;8661;45.700;4.880;2022-11-23T05:28:14;5.30;99.90
17092;DHT22;8661;45.700;4.880;2022-11-23T05:30:41;5.30;99.90
17092;DHT22;8661;45.700;4.880;2022-11-23T05:33:08;5.20;99.90
17092;DHT22;8661;45.700;4.880;2022-11-23T05:35:37;5.30;99.90
17092;DHT22;8661;45.700;4.880;2022-11-23T05:38:04;5.30;99.90
17092;DHT22;8661;45.700;4.880;2022-11-23T05:40:31;5.30;99.90
17092;DHT22;8661;45.700;4.880;2022-11-23T05:42:59;5.40;99.90
17092;DHT22;8661;45.700;4.880;2022-11-23T05:45:26;5.40;99.90
17092;DHT22;8661;45.700;4.880;2022-11-23T05:47:54;5.30;99.90
17092;DHT22;8661;45.700;4.880;2022-11-23T05:50:23;5.30;99.90
17092;DHT22;8661;45.700;4.880;2022-11-23T05:52:52;5.40;99.90
17092;DHT22;8661;45.700;4.880;2022-11-23T05:55:21;5.30;99.90
17092;DHT22;8661;45.700;4.880;2022-11-23T05:57:48;5.30;99.90
17092;DHT22;8661;45.700;4.880;2022-11-23T06:00:16;5.30;99.90
17092;DHT22;8661;45.700;4.880;2022-11-23T06:02:43;5.30;99.90
17092;DHT22;8661;45.700;4.880;2022-11-23T06:05:10;5.30;99.90
17092;DHT22;8661;45.700;4.880;2022-11-23T06:07:37;5.30;99.90
17092;DHT22;8661;45.700;4.880;2022-11-23T06:10:06;5.30;99.90
17092;DHT22;8661;45.700;4.880;2022-11-23T06:12:34;5.30;99.90
17092;DHT22;8661;45.700;4.880;2022-11-23T06:15:01;5.30;99.90
17092;DHT22;8661;45.700;4.880;2022-11-23T06:17:28;5.30;99.90
17092;DHT22;8661;45.700;4.880;2022-11-23T06:19:55;5.40;99.90
17092;DHT22;8661;45.700;4.880;2022-11-23T06:22:22;5.40;99.90
17092;DHT22;8661;45.700;4.880;2022-11-23T06:24:49;5.40;99.90
17092;DHT22;8661;45.700;4.880;2022-11-23T06:27:18;5.40;99.90
17092;DHT22;8661;45.700;4.880;2022-11-23T06:29:45;5.50;99.90
17092;DHT22;8661;45.700;4.880;2022-11-23T06:32:13;5.50;99.90
17092;DHT22;8661;45.700;4.880;2022-11-23T06:34:40;5.60;99.90
17092;DHT22;8661;45.700;4.880;2022-11-23T06:37:07;5.60;99.90
17092;DHT22;8661;45.700;4.880;2022-11-23T06:39:34;5.50;99.90
17092;DHT22;8661;45.700;4.880;2022-11-23T06:42:01;5.50;99.90
17092;DHT22;8661;45.700;4.880;2022-11-23T06:44:30;5.50;99.90
17092;DHT22;8661;45.700;4.880;2022-11-23T06:46:57;5.50;99.90
17092;DHT22;8661;45.700;4.880;2022-11-23T06:49:24;5.50;99.90
17092;DHT22;8661;45.700;4.880;2022-11-23T06:51:53;5.60;99.90
17092;DHT22;8661;45.700;4.880;2022-11-23T06:54:20;5.60;99.90
17092;DHT22;8661;45.700;4.880;2022-11-23T06:56:47;5.60;99.90
17092;DHT22;8661;45.700;4.880;2022-11-23T06:59:14;5.70;99.90
17092;DHT22;8661;45.700;4.880;2022-11-23T07:01:42;5.70;99.90
17092;DHT22;8661;45.700;4.880;2022-11-23T07:04:09;5.70;99.90
17092;DHT22;8661;45.700;4.880;2022-11-23T07:06:38;5.70;99.90
17092;DHT22;8661;45.700;4.880;2022-11-23T07:09:06;5.70;99.90
17092;DHT22;8661;45.700;4.880;2022-11-23T07:11:34;5.80;99.90
17092;DHT22;8661;45.700;4.880;2022-11-23T07:14:01;5.80;99.90
17092;DHT22;8661;45.700;4.880;2022-11-23T07:16:28;5.80;99.90
17092;DHT22;8661;45.700;4.880;2022-11-23T07:18:56;5.90;99.90
17092;DHT22;8661;45.700;4.880;2022-11-23T07:21:24;5.90;99.90
17092;DHT22;8661;45.700;4.880;2022-11-23T07:23:51;6.00;99.90
17092;DHT22;8661;45.700;4.880;2022-11-23T07:26:18;6.10;99.90
17092;DHT22;8661;45.700;4.880;2022-11-23T07:28:45;6.10;99.90
17092;DHT22;8661;45.700;4.880;2022-11-23T07:31:12;6.20;99.90
17092;DHT22;8661;45.700;4.880;2022-11-23T07:33:42;6.20;99.90
17092;DHT22;8661;45.700;4.880;2022-11-23T07:36:11;6.30;99.90
17092;DHT22;8661;45.700;4.880;2022-11-23T07:38:38;6.30;99.90
17092;DHT22;8661;45.700;4.880;2022-11-23T07:41:05;6.40;99.90
17092;DHT22;8661;45.700;4.880;2022-11-23T07:43:32;6.40;99.90
17092;DHT22;8661;45.700;4.880;2022-11-23T07:45:59;6.40;99.90
17092;DHT22;8661;45.700;4.880;2022-11-23T07:48:26;6.40;99.90
17092;DHT22;8661;45.700;4.880;2022-11-23T07:50:53;6.50;99.90
17092;DHT22;8661;45.700;4.880;2022-11-23T07:53:21;6.50;99.90
17092;DHT22;8661;45.700;4.880;2022-11-23T07:55:49;6.50;99.90
17092;DHT22;8661;45.700;4.880;2022-11-23T07:58:16;6.60;99.90
17092;DHT22;8661;45.700;4.880;2022-11-23T08:00:43;6.60;99.90
17092;DHT22;8661;45.700;4.880;2022-11-23T08:03:12;6.60;99.90
17092;DHT22;8661;45.700;4.880;2022-11-23T08:05:39;6.70;99.90
17092;DHT22;8661;45.700;4.880;2022-11-23T08:08:06;6.90;99.90
17092;DHT22;8661;45.700;4.880;2022-11-23T08:10:35;7.20;99.90
17092;DHT22;8661;45.700;4.880;2022-11-23T08:13:03;7.60;99.90
17092;DHT22;8661;45.700;4.880;2022-11-23T08:15:31;7.60;99.90
17092;DHT22;8661;45.700;4.880;2022-11-23T08:17:59;7.60;99.90
17092;DHT22;8661;45.700;4.880;2022-11-23T08:20:28;7.60;99.90
17092;DHT22;8661;45.700;4.880;2022-11-23T08:22:55;7.50;99.90
17092;DHT22;8661;45.700;4.880;2022-11-23T08:25:23;7.50;99.90
17092;DHT22;8661;45.700;4.880;2022-11-23T08:27:55;7.50;99.90
17092;DHT22;8661;45.700;4.880;2022-11-23T08:30:22;7.60;99.90
17092;DHT22;8661;45.700;4.880;2022-11-23T08:32:49;7.60;99.90
17092;DHT22;8661;45.700;4.880;2022-11-23T08:35:16;7.50;99.90
17092;DHT22;8661;45.700;4.880;2022-11-23T08:37:43;7.50;99.90
17092;DHT22;8661;45.700;4.880;2022-11-23T08:40:11;7.50;99.90
17092;DHT22;8661;45.700;4.880;2022-11-23T08:42:38;7.50;99.90
17092;DHT22;8661;45.700;4.880;2022-11-23T08:45:08;7.50;99.90
17092;DHT22;8661;45.700;4.880;2022-11-23T08:47:35;7.60;99.90
17092;DHT22;8661;45.700;4.880;2022-11-23T08:50:02;7.40;99.90
17092;DHT22;8661;45.700;4.880;2022-11-23T08:52:29;7.40;99.90
17092;DHT22;8661;45.700;4.880;2022-11-23T08:54:56;7.30;99.90
17092;DHT22;8661;45.700;4.880;2022-11-23T08:57:23;7.30;99.90
17092;DHT22;8661;45.700;4.880;2022-11-23T08:59:50;7.20;99.90
17092;DHT22;8661;45.700;4.880;2022-11-23T09:02:18;7.10;99.90
17092;DHT22;8661;45.700;4.880;2022-11-23T09:04:45;7.20;99.90
17092;DHT22;8661;45.700;4.880;2022-11-23T09:07:13;7.10;99.90
17092;DHT22;8661;45.700;4.880;2022-11-23T09:09:40;7.10;99.90
17092;DHT22;8661;45.700;4.880;2022-11-23T09:12:10;7.10;99.90
17092;DHT22;8661;45.700;4.880;2022-11-23T09:14:37;7.00;99.90
17092;DHT22;8661;45.700;4.880;2022-11-23T09:17:05;6.90;99.90
17092;DHT22;8661;45.700;4.880;2022-11-23T09:19:33;6.90;99.90
17092;DHT22;8661;45.700;4.880;2022-11-23T09:22:00;6.90;99.90
17092;DHT22;8661;45.700;4.880;2022-11-23T09:24:27;6.80;99.90
17092;DHT22;8661;45.700;4.880;2022-11-23T09:26:55;6.80;99.90
17092;DHT22;8661;45.700;4.880;2022-11-23T09:29:23;6.80;99.90
17092;DHT22;8661;45.700;4.880;2022-11-23T09:31:51;6.80;99.90
17092;DHT22;8661;45.700;4.880;2022-11-23T09:34:18;6.80;99.90
17092;DHT22;8661;45.700;4.880;2022-11-23T09:36:46;6.90;99.90
17092;DHT22;8661;45.700;4.880;2022-11-23T09:39:13;6.90;99.90
17092;DHT22;8661;45.700;4.880;2022-11-23T09:42:04;6.90;99.90
17092;DHT22;8661;45.700;4.880;2022-11-23T09:44:50;7.00;99.90
17092;DHT22;8661;45.700;4.880;2022-11-23T09:47:35;7.10;99.90
17092;DHT22;8661;45.700;4.880;2022-11-23T09:50:11;7.10;99.90
17092;DHT22;8661;45.700;4.880;2022-11-23T09:52:45;7.20;99.90
17092;DHT22;8661;45.700;4.880;2022-11-23T09:55:18;7.20;99.90
17092;DHT22;8661;45.700;4.880;2022-11-23T09:57:48;7.40;99.90
17092;DHT22;8661;45.700;4.880;2022-11-23T10:00:22;7.50;99.90
17092;DHT22;8661;45.700;4.880;2022-11-23T10:02:50;7.60;99.90
17092;DHT22;8661;45.700;4.880;2022-11-23T10:05:21;7.80;99.90
17092;DHT22;8661;45.700;4.880;2022-11-23T10:08:01;7.90;99.90
17092;DHT22;8661;45.700;4.880;2022-11-23T10:10:39;8.10;99.90
17092;DHT22;8661;45.700;4.880;2022-11-23T10:13:20;8.20;99.90
17092;DHT22;8661;45.700;4.880;2022-11-23T10:16:05;8.40;99.90
17092;DHT22;8661;45.700;4.880;2022-11-23T10:18:44;8.50;99.90
17092;DHT22;8661;45.700;4.880;2022-11-23T10:21:20;8.50;99.90
17092;DHT22;8661;45.700;4.880;2022-11-23T10:23:54;8.70;99.90
17092;DHT22;8661;45.700;4.880;2022-11-23T10:26:26;9.50;99.90
17092;DHT22;8661;45.700;4.880;2022-11-23T10:28:55;9.60;99.90
17092;DHT22;8661;45.700;4.880;2022-11-23T10:31:24;9.70;99.90
17092;DHT22;8661;45.700;4.880;2022-11-23T10:33:59;9.80;99.90
17092;DHT22;8661;45.700;4.880;2022-11-23T10:36:30;9.60;99.90
17092;DHT22;8661;45.700;4.880;2022-11-23T10:39:11;9.60;99.90
17092;DHT22;8661;45.700;4.880;2022-11-23T10:41:39;9.80;99.90
17092;DHT22;8661;45.700;4.880;2022-11-23T10:44:26;9.80;99.90
17092;DHT22;8661;45.700;4.880;2022-11-23T10:46:54;10.00;99.90
17092;DHT22;8661;45.700;4.880;2022-11-23T10:49:25;10.50;99.90
17092;DHT22;8661;45.700;4.880;2022-11-23T10:51:55;10.80;99.90
17092;DHT22;8661;45.700;4.880;2022-11-23T10:54:27;11.10;99.90
17092;DHT22;8661;45.700;4.880;2022-11-23T10:56:56;11.20;99.90
17092;DHT22;8661;45.700;4.880;2022-11-23T10:59:33;11.40;99.90
17092;DHT22;8661;45.700;4.880;2022-11-23T11:04:45;11.30;99.90
17092;DHT22;8661;45.700;4.880;2022-11-23T11:07:22;11.30;99.90
17092;DHT22;8661;45.700;4.880;2022-11-23T11:09:55;12.40;99.90
17092;DHT22;8661;45.700;4.880;2022-11-23T11:12:31;13.20;99.90
17092;DHT22;8661;45.700;4.880;2022-11-23T11:15:01;12.80;99.90
17092;DHT22;8661;45.700;4.880;2022-11-23T11:17:31;12.30;99.90
17092;DHT22;8661;45.700;4.880;2022-11-23T11:20:29;12.20;99.90
17092;DHT22;8661;45.700;4.880;2022-11-23T11:22:58;11.90;99.90
17092;DHT22;8661;45.700;4.880;2022-11-23T11:25:28;11.60;99.90
17092;DHT22;8661;45.700;4.880;2022-11-23T11:27:57;11.30;99.90
17092;DHT22;8661;45.700;4.880;2022-11-23T11:30:28;11.10;99.90
17092;DHT22;8661;45.700;4.880;2022-11-23T11:33:03;11.10;99.90
17092;DHT22;8661;45.700;4.880;2022-11-23T11:35:36;10.90;99.90
17092;DHT22;8661;45.700;4.880;2022-11-23T11:38:12;10.80;99.90
17092;DHT22;8661;45.700;4.880;2022-11-23T11:40:45;10.70;99.90
17092;DHT22;8661;45.700;4.880;2022-11-23T11:43:17;10.60;99.90
17092;DHT22;8661;45.700;4.880;2022-11-23T11:45:47;10.50;99.90
17092;DHT22;8661;45.700;4.880;2022-11-23T11:48:17;10.40;99.90
17092;DHT22;8661;45.700;4.880;2022-11-23T11:50:51;10.30;99.90
17092;DHT22;8661;45.700;4.880;2022-11-23T11:53:21;10.20;99.90
17092;DHT22;8661;45.700;4.880;2022-11-23T11:55:53;10.20;99.90
17092;DHT22;8661;45.700;4.880;2022-11-23T11:58:23;10.20;99.90
17092;DHT22;8661;45.700;4.880;2022-11-23T12:00:57;10.10;99.90
17092;DHT22;8661;45.700;4.880;2022-11-23T12:03:36;10.10;99.90
17092;DHT22;8661;45.700;4.880;2022-11-23T12:06:11;10.10;99.90
17092;DHT22;8661;45.700;4.880;2022-11-23T12:08:45;10.00;99.90
17092;DHT22;8661;45.700;4.880;2022-11-23T12:11:13;10.10;99.90
17092;DHT22;8661;45.700;4.880;2022-11-23T12:13:42;10.10;99.90
17092;DHT22;8661;45.700;4.880;2022-11-23T12:16:19;10.20;99.90
17092;DHT22;8661;45.700;4.880;2022-11-23T12:19:07;10.30;99.90
17092;DHT22;8661;45.700;4.880;2022-11-23T12:24:50;10.50;99.90
17092;DHT22;8661;45.700;4.880;2022-11-23T12:27:27;10.60;99.90
17092;DHT22;8661;45.700;4.880;2022-11-23T12:30:21;10.80;99.90
17092;DHT22;8661;45.700;4.880;2022-11-23T12:33:18;10.90;99.90
17092;DHT22;8661;45.700;4.880;2022-11-23T12:36:06;11.00;99.90
17092;DHT22;8661;45.700;4.880;2022-11-23T12:38:43;11.00;99.90
17092;DHT22;8661;45.700;4.880;2022-11-23T12:41:21;11.10;99.90
17092;DHT22;8661;45.700;4.880;2022-11-23T12:44:17;11.00;99.90
17092;DHT22;8661;45.700;4.880;2022-11-23T12:46:50;11.10;99.90
17092;DHT22;8661;45.700;4.880;2022-11-23T12:49:29;11.10;99.90
17092;DHT22;8661;45.700;4.880;2022-11-23T12:52:06;11.10;99.90
17092;DHT22;8661;45.700;4.880;2022-11-23T12:54:53;11.10;99.90
17092;DHT22;8661;45.700;4.880;2022-11-23T12:57:28;11.10;99.90
17092;DHT22;8661;45.700;4.880;2022-11-23T13:00:00;11.00;99.90
17092;DHT22;8661;45.700;4.880;2022-11-23T13:02:52;11.00;99.90
17092;DHT22;8661;45.700;4.880;2022-11-23T13:08:36;10.90;99.90
17092;DHT22;8661;45.700;4.880;2022-11-23T13:11:20;10.90;99.90
17092;DHT22;8661;45.700;4.880;2022-11-23T13:14:01;10.80;99.90
17092;DHT22;8661;45.700;4.880;2022-11-23T13:16:37;10.80;99.90
17092;DHT22;8661;45.700;4.880;2022-11-23T13:22:06;10.80;99.90
17092;DHT22;8661;45.700;4.880;2022-11-23T13:24:39;10.70;99.90
17092;DHT22;8661;45.700;4.880;2022-11-23T13:27:42;10.70;99.90
17092;DHT22;8661;45.700;4.880;2022-11-23T13:30:25;10.60;99.90
17092;DHT22;8661;45.700;4.880;2022-11-23T13:32:56;10.40;99.90
17092;DHT22;8661;45.700;4.880;2022-11-23T13:35:57;10.30;99.90
17092;DHT22;8661;45.700;4.880;2022-11-23T13:38:36;10.20;99.90
17092;DHT22;8661;45.700;4.880;2022-11-23T13:43:47;10.10;99.90
17092;DHT22;8661;45.700;4.880;2022-11-23T13:46:21;10.00;99.90
17092;DHT22;8661;45.700;4.880;2022-11-23T13:48:50;9.90;99.90
17092;DHT22;8661;45.700;4.880;2022-11-23T13:51:25;9.90;99.90
17092;DHT22;8661;45.700;4.880;2022-11-23T13:53:58;9.90;99.90
17092;DHT22;8661;45.700;4.880;2022-11-23T13:56:32;9.90;99.90
17092;DHT22;8661;45.700;4.880;2022-11-23T13:59:27;9.90;99.90
17092;DHT22;8661;45.700;4.880;2022-11-23T14:02:23;9.90;99.90
17092;DHT22;8661;45.700;4.880;2022-11-23T14:07:53;9.90;99.90
17092;DHT22;8661;45.700;4.880;2022-11-23T14:10:23;9.90;99.90
17092;DHT22;8661;45.700;4.880;2022-11-23T14:12:54;9.90;99.90
17092;DHT22;8661;45.700;4.880;2022-11-23T14:15:25;9.90;99.90
17092;DHT22;8661;45.700;4.880;2022-11-23T14:18:18;10.00;99.90
17092;DHT22;8661;45.700;4.880;2022-11-23T14:20:56;10.00;99.90
17092;DHT22;8661;45.700;4.880;2022-11-23T14:26:33;10.10;99.90
17092;DHT22;8661;45.700;4.880;2022-11-23T14:29:25;10.00;99.90
17092;DHT22;8661;45.700;4.880;2022-11-23T14:32:22;10.00;99.90
17092;DHT22;8661;45.700;4.880;2022-11-23T14:34:59;10.00;99.90
17092;DHT22;8661;45.700;4.880;2022-11-23T14:37:35;10.00;99.90
17092;DHT22;8661;45.700;4.880;2022-11-23T14:40:15;9.90;99.90
17092;DHT22;8661;45.700;4.880;2022-11-23T14:42:52;9.90;99.90
17092;DHT22;8661;45.700;4.880;2022-11-23T14:45:22;9.80;99.90
17092;DHT22;8661;45.700;4.880;2022-11-23T14:47:52;9.80;99.90
17092;DHT22;8661;45.700;4.880;2022-11-23T14:50:24;9.60;99.90
17092;DHT22;8661;45.700;4.880;2022-11-23T14:52:52;9.60;99.90
17092;DHT22;8661;45.700;4.880;2022-11-23T14:55:22;9.50;99.90
17092;DHT22;8661;45.700;4.880;2022-11-23T14:57:53;9.40;99.90
17092;DHT22;8661;45.700;4.880;2022-11-23T15:00:28;9.40;99.90
17092;DHT22;8661;45.700;4.880;2022-11-23T15:03:00;9.40;99.90
17092;DHT22;8661;45.700;4.880;2022-11-23T15:05:32;9.30;99.90
17092;DHT22;8661;45.700;4.880;2022-11-23T15:08:03;9.30;99.90
17092;DHT22;8661;45.700;4.880;2022-11-23T15:10:42;9.30;99.90
17092;DHT22;8661;45.700;4.880;2022-11-23T15:13:22;9.30;99.90
17092;DHT22;8661;45.700;4.880;2022-11-23T15:15:51;9.30;99.90
17092;DHT22;8661;45.700;4.880;2022-11-23T15:18:28;9.30;99.90
17092;DHT22;8661;45.700;4.880;2022-11-23T15:20:58;9.30;99.90
17092;DHT22;8661;45.700;4.880;2022-11-23T15:23:32;9.30;99.90
17092;DHT22;8661;45.700;4.880;2022-11-23T15:26:03;9.40;99.90
17092;DHT22;8661;45.700;4.880;2022-11-23T15:28:32;9.40;99.90
17092;DHT22;8661;45.700;4.880;2022-11-23T15:31:16;9.40;99.90
17092;DHT22;8661;45.700;4.880;2022-11-23T15:33:46;9.40;99.90
17092;DHT22;8661;45.700;4.880;2022-11-23T15:36:17;9.50;99.90
17092;DHT22;8661;45.700;4.880;2022-11-23T15:38:49;9.50;99.90
17092;DHT22;8661;45.700;4.880;2022-11-23T15:41:17;9.40;99.90
17092;DHT22;8661;45.700;4.880;2022-11-23T15:43:52;9.50;99.90
17092;DHT22;8661;45.700;4.880;2022-11-23T15:46:20;9.40;99.90
17092;DHT22;8661;45.700;4.880;2022-11-23T15:48:53;9.40;99.90
17092;DHT22;8661;45.700;4.880;2022-11-23T15:51:27;9.50;99.90
17092;DHT22;8661;45.700;4.880;2022-11-23T15:53:57;9.40;99.90
17092;DHT22;8661;45.700;4.880;2022-11-23T15:56:28;9.50;99.90
17092;DHT22;8661;45.700;4.880;2022-11-23T15:58:59;9.40;99.90
17092;DHT22;8661;45.700;4.880;2022-11-23T16:01:27;9.50;99.90
17092;DHT22;8661;45.700;4.880;2022-11-23T16:03:57;9.50;99.90
17092;DHT22;8661;45.700;4.880;2022-11-23T16:06:34;9.50;99.90
17092;DHT22;8661;45.700;4.880;2022-11-23T16:09:30;9.50;99.90
17092;DHT22;8661;45.700;4.880;2022-11-23T16:11:50;9.50;99.90
17092;DHT22;8661;45.700;4.880;2022-11-23T16:14:19;9.50;99.90
17092;DHT22;8661;45.700;4.880;2022-11-23T16:16:59;9.50;99.90
17092;DHT22;8661;45.700;4.880;2022-11-23T16:19:32;9.60;99.90
17092;DHT22;8661;45.700;4.880;2022-11-23T16:22:01;9.60;99.90
17092;DHT22;8661;45.700;4.880;2022-11-23T16:24:31;9.50;99.90
17092;DHT22;8661;45.700;4.880;2022-11-23T16:26:59;9.40;99.90
17092;DHT22;8661;45.700;4.880;2022-11-23T16:29:30;9.40;99.90
17092;DHT22;8661;45.700;4.880;2022-11-23T16:32:00;9.40;99.90
17092;DHT22;8661;45.700;4.880;2022-11-23T16:34:27;9.40;99.90
17092;DHT22;8661;45.700;4.880;2022-11-23T16:36:56;9.40;99.90
17092;DHT22;8661;45.700;4.880;2022-11-23T16:39:24;9.40;99.90
17092;DHT22;8661;45.700;4.880;2022-11-23T16:41:53;9.40;99.90